Time;durP1;ratioP1;P1;durP2;ratioP2;P2;SDS_P1;SDS_P2;PMS_P1;PMS_P2;Temp;Humidity;BMP_temperature;BMP_pressure;BME280_temperature;BME280_humidity;BME280_pressure;Samples;Min_cycle;Max_cycle;Signal;HPM_P1;HPM_P2
2023/01/12 00:01:07;;;;;;;0.40;0.40;;;;;;;9.69;97.84;100339.56;5031985;28;20541;-50
2023/01/12 00:03:34;;;;;;;5.10;1.27;;;;;;;9.92;98.14;100336.34;5006037;28;20444;-51
2023/01/12 00:06:00;;;;;;;6.40;1.00;;;;;;;9.90;97.19;100328.44;5031900;28;20518;-51
2023/01/12 00:08:27;;;;;;;0.57;0.40;;;;;;;9.80;98.17;100329.56;5031782;28;20472;-50
2023/01/12 00:10:56;;;;;;;3.17;0.67;;;;;;;9.76;98.19;100326.13;5031718;28;20452;-50
2023/01/12 00:13:22;;;;;;;5.43;0.50;;;;;;;9.75;97.91;100327.03;5031842;28;20546;-50
2023/01/12 00:18:34;;;;;;;0.43;0.30;;;;;;;9.51;98.58;100317.00;5022511;28;20514;-49
2023/01/12 00:21:00;;;;;;;0.63;0.60;;;;;;;9.52;98.89;100317.88;5031643;28;20963;-51
2023/01/12 00:23:28;;;;;;;4.07;1.03;;;;;;;9.59;97.95;100330.06;5031717;28;20458;-50
2023/01/12 00:25:54;;;;;;;1.37;0.50;;;;;;;9.79;98.13;100331.34;5031573;28;20519;-52
2023/01/12 00:28:20;;;;;;;5.80;1.03;;;;;;;9.80;98.28;100327.78;5031551;28;20513;-50
2023/01/12 00:30:47;;;;;;;0.67;0.60;;;;;;;9.81;97.90;100320.69;5031489;28;20822;-50
2023/01/12 00:33:13;;;;;;;0.47;0.30;;;;;;;9.74;97.92;100322.63;5031822;28;20458;-49
2023/01/12 00:35:40;;;;;;;2.20;0.70;;;;;;;9.69;98.54;100318.31;5018313;28;20787;-50
2023/01/12 00:38:06;;;;;;;7.23;0.40;;;;;;;9.66;98.80;100318.41;5033435;28;20537;-50
2023/01/12 00:40:35;;;;;;;9.40;2.70;;;;;;;9.63;98.60;100323.78;5035169;28;20447;-50
2023/01/12 00:45:49;;;;;;;1.63;1.00;;;;;;;9.77;98.25;100322.53;5030584;28;20499;-50
2023/01/12 00:48:16;;;;;;;1.10;1.00;;;;;;;9.70;98.98;100325.38;5027194;28;20845;-49
2023/01/12 00:50:42;;;;;;;6.60;0.60;;;;;;;9.77;98.55;100314.59;5035026;28;20455;-50
2023/01/12 00:53:09;;;;;;;2.73;0.67;;;;;;;9.94;98.24;100331.88;5017291;28;20448;-50
2023/01/12 00:55:35;;;;;;;13.33;0.77;;;;;;;9.97;97.81;100324.69;5034992;28;20451;-49
2023/01/12 00:58:02;;;;;;;0.43;0.30;;;;;;;9.89;97.95;100323.16;5035046;28;20478;-50
2023/01/12 01:00:28;;;;;;;2.20;0.50;;;;;;;9.99;97.87;100317.53;5034756;28;20451;-50
2023/01/12 01:02:55;;;;;;;0.50;0.50;;;;;;;9.86;97.96;100320.56;5034945;28;20975;-50
2023/01/12 01:05:21;;;;;;;13.10;1.43;;;;;;;9.98;97.62;100315.81;5034677;28;20451;-50
2023/01/12 01:07:48;;;;;;;2.47;1.20;;;;;;;9.98;98.02;100321.13;5034579;28;20493;-51
2023/01/12 01:10:15;;;;;;;1.40;1.10;;;;;;;10.13;97.40;100318.97;5034583;28;20452;-50
2023/01/12 01:12:42;;;;;;;3.27;0.90;;;;;;;9.99;98.10;100319.34;5034895;28;20447;-50
2023/01/12 01:15:09;;;;;;;2.47;0.30;;;;;;;9.90;98.16;100316.94;5034416;28;20955;-50
2023/01/12 01:17:35;;;;;;;6.40;1.03;;;;;;;10.14;97.86;100324.25;5034627;28;20554;-50
2023/01/12 01:20:03;;;;;;;0.50;0.40;;;;;;;10.07;97.18;100314.72;5034419;28;20456;-50
2023/01/12 01:22:29;;;;;;;0.70;0.40;;;;;;;10.05;97.52;100317.41;5034353;28;20471;-51
2023/01/12 01:24:56;;;;;;;4.10;0.60;;;;;;;10.17;97.74;100318.88;5034257;28;20955;-50
2023/01/12 01:27:22;;;;;;;3.27;0.77;;;;;;;10.09;97.88;100318.19;5034211;28;20578;-50
2023/01/12 01:29:49;;;;;;;2.30;0.70;;;;;;;10.07;97.80;100315.56;5034354;28;21010;-50
2023/01/12 01:32:15;;;;;;;8.03;2.10;;;;;;;9.99;97.69;100311.38;5034199;28;20454;-51
2023/01/12 01:34:42;;;;;;;1.13;1.03;;;;;;;10.02;96.80;100317.50;5029922;28;20456;-50
2023/01/12 01:37:09;;;;;;;3.70;1.90;;;;;;;10.09;97.76;100305.78;5033735;28;20475;-51
2023/01/12 01:39:35;;;;;;;0.77;0.43;;;;;;;9.98;97.89;100320.25;5034372;28;20509;-50
2023/01/12 01:42:02;;;;;;;1.53;0.40;;;;;;;9.89;98.69;100315.19;5024185;28;20461;-50
2023/01/12 01:44:28;;;;;;;0.60;0.60;;;;;;;10.06;97.70;100311.19;5021478;28;20451;-50
2023/01/12 01:46:57;;;;;;;13.80;1.13;;;;;;;10.20;97.03;100309.94;5034103;28;20484;-49
2023/01/12 01:49:24;;;;;;;0.77;0.57;;;;;;;10.06;97.59;100312.97;5033167;28;20915;-49
2023/01/12 01:51:54;;;;;;;1.00;0.30;;;;;;;10.26;96.67;100310.66;5033732;28;20547;-50
2023/01/12 01:54:22;;;;;;;1.00;0.73;;;;;;;9.95;97.66;100304.41;5016755;28;20444;-50
2023/01/12 01:56:54;;;;;;;1.10;1.10;;;;;;;10.02;97.88;100298.03;5001656;28;20451;-50
2023/01/12 01:59:25;;;;;;;1.20;0.97;;;;;;;10.28;96.55;100284.97;5023322;28;20447;-50
2023/01/12 02:01:52;;;;;;;0.60;0.50;;;;;;;10.02;97.63;100274.13;5033776;28;20493;-50
2023/01/12 02:04:19;;;;;;;0.47;0.30;;;;;;;10.07;97.64;100288.16;5033638;28;20490;-49
2023/01/12 02:06:47;;;;;;;25.50;1.70;;;;;;;10.08;98.07;100282.78;5033340;28;20491;-50
2023/01/12 02:09:18;;;;;;;1.10;0.83;;;;;;;10.02;98.03;100282.09;5016139;28;20471;-52
2023/01/12 02:17:42;;;;;;;9.40;2.50;;;;;;;10.18;97.63;100264.84;5033610;28;20546;-50
2023/01/12 02:20:34;;;;;;;0.60;0.60;;;;;;;10.02;98.32;100268.81;5033362;28;20444;-51
2023/01/12 02:23:22;;;;;;;6.00;0.47;;;;;;;10.27;97.35;100263.72;5033127;28;20486;-50
2023/01/12 02:26:16;;;;;;;12.47;0.87;;;;;;;10.26;97.79;100268.16;5033380;28;20450;-50
2023/01/12 02:29:07;;;;;;;9.63;1.03;;;;;;;10.27;97.39;100261.06;5013900;28;20526;-52
2023/01/12 02:31:43;;;;;;;22.77;2.70;;;;;;;10.40;97.20;100257.16;5007663;28;20440;-49
2023/01/12 02:34:31;;;;;;;1.10;1.00;;;;;;;10.30;96.85;100251.25;5031047;28;20505;-50
2023/01/12 02:37:12;;;;;;;0.40;0.30;;;;;;;10.24;98.03;100245.22;5024885;28;20446;-51
2023/01/12 02:39:48;;;;;;;10.03;1.13;;;;;;;10.29;97.20;100260.13;5007239;28;20447;-50
2023/01/12 02:42:41;;;;;;;3.00;1.13;;;;;;;10.01;98.13;100251.16;5022907;28;20838;-50
2023/01/12 02:45:26;;;;;;;0.57;0.57;;;;;;;10.06;97.93;100250.09;5032931;28;20493;-50
2023/01/12 02:48:04;;;;;;;1.57;0.80;;;;;;;10.06;98.36;100249.22;5008361;28;20571;-51
2023/01/12 02:50:40;;;;;;;2.20;1.07;;;;;;;10.09;98.11;100243.81;5030170;28;20453;-51
2023/01/12 02:53:17;;;;;;;0.50;0.30;;;;;;;10.07;98.37;100259.81;5024105;28;20840;-50
2023/01/12 02:55:45;;;;;;;1.43;0.60;;;;;;;10.05;98.76;100245.72;5019456;28;20450;-50
2023/01/12 02:58:15;;;;;;;0.70;0.40;;;;;;;10.42;97.08;100246.50;5032598;28;21027;-50
2023/01/12 03:00:44;;;;;;;30.30;0.70;;;;;;;10.13;99.03;100255.22;5032780;28;20447;-51
2023/01/12 03:03:11;;;;;;;6.13;0.77;;;;;;;10.25;97.82;100254.94;5032640;28;20487;-50
2023/01/12 03:05:40;;;;;;;5.77;0.97;;;;;;;10.22;98.77;100260.34;5032833;28;20483;-50
2023/01/12 03:08:10;;;;;;;9.63;0.50;;;;;;;10.32;97.92;100269.81;5032542;28;20491;-49
2023/01/12 03:10:55;;;;;;;0.60;0.50;;;;;;;10.29;97.87;100269.91;5032486;28;20498;-52
2023/01/12 03:13:23;;;;;;;1.97;0.70;;;;;;;10.27;98.79;100264.59;5032344;28;20949;-50
2023/01/12 03:15:54;;;;;;;6.90;2.13;;;;;;;10.24;97.96;100251.41;5032456;28;20543;-50
2023/01/12 03:18:31;;;;;;;3.50;0.40;;;;;;;10.26;98.44;100244.25;5032412;28;20467;-50
2023/01/12 03:21:09;;;;;;;5.97;1.73;;;;;;;10.30;98.26;100248.59;5032397;28;20448;-50
2023/01/12 03:24:02;;;;;;;0.77;0.77;;;;;;;10.20;98.36;100247.06;5001536;28;20451;-50
2023/01/12 03:26:32;;;;;;;0.50;0.50;;;;;;;10.06;98.50;100238.59;5030895;28;20858;-50
2023/01/12 03:29:23;;;;;;;0.43;0.40;;;;;;;10.17;98.84;100235.66;5032381;28;20526;-50
2023/01/12 03:31:50;;;;;;;0.50;0.50;;;;;;;10.29;98.47;100238.00;5011413;28;20479;-50
2023/01/12 03:34:16;;;;;;;1.30;1.30;;;;;;;10.10;98.58;100234.94;5029141;28;20448;-50
2023/01/12 03:37:05;;;;;;;2.83;0.43;;;;;;;10.27;98.24;100231.84;5022514;28;20447;-50
2023/01/12 03:39:37;;;;;;;4.77;1.87;;;;;;;10.10;98.55;100230.50;5014816;28;20820;-51
2023/01/12 03:42:14;;;;;;;7.50;0.40;;;;;;;10.14;98.49;100220.66;5021965;28;20456;-50
2023/01/12 03:44:53;;;;;;;2.10;0.63;;;;;;;10.19;98.15;100231.19;5032258;28;20471;-50
2023/01/12 03:47:26;;;;;;;0.53;0.53;;;;;;;9.97;99.48;100225.56;5032054;28;20502;-49
2023/01/12 03:49:57;;;;;;;0.50;0.40;;;;;;;10.08;99.21;100226.16;5032044;28;20447;-50
2023/01/12 03:52:24;;;;;;;1.27;1.17;;;;;;;9.97;99.39;100226.44;5031935;28;20470;-50
2023/01/12 03:54:55;;;;;;;5.70;2.43;;;;;;;9.91;99.29;100216.00;5032165;28;20784;-50
2023/01/12 03:57:22;;;;;;;1.83;0.97;;;;;;;9.90;99.66;100226.66;5031992;28;20487;-49
2023/01/12 03:59:48;;;;;;;3.33;0.80;;;;;;;9.94;99.70;100223.88;5032087;28;20452;-49
2023/01/12 04:02:15;;;;;;;0.63;0.63;;;;;;;10.08;99.72;100218.19;5031949;28;20447;-50
2023/01/12 04:04:41;;;;;;;0.73;0.73;;;;;;;10.05;100.00;100219.16;5032463;28;20452;-50
2023/01/12 04:07:08;;;;;;;2.67;1.50;;;;;;;10.02;99.56;100215.72;5031472;28;20483;-52
2023/01/12 04:09:34;;;;;;;8.20;1.60;;;;;;;10.31;99.00;100212.28;5032139;28;20452;-50
2023/01/12 04:12:09;;;;;;;4.10;1.53;;;;;;;10.04;99.71;100211.22;5032154;28;20466;-51
2023/01/12 04:14:41;;;;;;;3.10;0.93;;;;;;;10.16;99.25;100205.56;5035812;28;20483;-50
2023/01/12 04:17:10;;;;;;;1.53;0.47;;;;;;;10.04;99.31;100204.13;5035765;28;20822;-50
2023/01/12 04:19:37;;;;;;;10.17;2.53;;;;;;;10.07;99.46;100208.47;5035547;28;20834;-50
2023/01/12 04:24:48;;;;;;;0.63;0.63;;;;;;;10.15;99.94;100202.97;5035678;28;20453;-50
2023/01/12 04:27:15;;;;;;;5.70;2.23;;;;;;;10.31;99.09;100201.63;5035506;28;20491;-51
2023/01/12 04:29:42;;;;;;;1.73;0.90;;;;;;;10.19;99.27;100200.16;5035439;28;20455;-50
2023/01/12 04:32:09;;;;;;;0.93;0.90;;;;;;;10.21;99.05;100195.72;5035339;28;20455;-50
2023/01/12 04:34:37;;;;;;;1.47;0.97;;;;;;;10.13;99.60;100202.13;5029747;28;20447;-50
2023/01/12 04:37:04;;;;;;;0.70;0.50;;;;;;;10.07;99.43;100203.16;5027944;28;20443;-51
2023/01/12 04:39:30;;;;;;;1.37;0.67;;;;;;;10.22;99.41;100191.28;5035384;28;20444;-52
2023/01/12 04:41:57;;;;;;;6.60;1.67;;;;;;;10.23;99.05;100183.25;5026055;28;20518;-49
2023/01/12 04:44:23;;;;;;;0.67;0.40;;;;;;;10.24;98.68;100187.66;5034606;28;20497;-50
2023/01/12 04:46:50;;;;;;;2.23;0.40;;;;;;;10.20;98.93;100178.00;5035038;28;20593;-51
2023/01/12 04:49:16;;;;;;;2.50;0.57;;;;;;;10.14;99.17;100177.28;5035025;28;20479;-50
2023/01/12 04:51:43;;;;;;;0.63;0.63;;;;;;;10.02;99.35;100173.22;5035223;28;20443;-49
2023/01/12 04:54:09;;;;;;;0.40;0.30;;;;;;;10.07;99.88;100176.63;5034951;28;20486;-51
2023/01/12 04:56:36;;;;;;;1.93;0.30;;;;;;;9.97;100.00;100172.47;5035036;28;20527;-50
2023/01/12 04:59:05;;;;;;;0.47;0.30;;;;;;;10.19;99.56;100160.31;5034709;28;20468;-50
2023/01/12 05:01:31;;;;;;;5.90;0.63;;;;;;;10.18;98.98;100155.94;5034740;28;20956;-50
2023/01/12 05:04:02;;;;;;;1.27;0.50;;;;;;;10.11;99.40;100143.72;5035103;28;20542;-51
2023/01/12 05:06:28;;;;;;;21.13;1.43;;;;;;;10.21;99.17;100128.41;5034552;28;20801;-52
2023/01/12 05:11:39;;;;;;;3.90;1.13;;;;;;;10.27;98.36;100126.44;5034650;28;20452;-50
2023/01/12 05:14:06;;;;;;;2.93;1.03;;;;;;;10.24;98.17;100115.06;5034955;28;20865;-50
2023/01/12 05:16:32;;;;;;;4.93;1.00;;;;;;;10.12;98.29;100120.69;5034755;28;20451;-50
2023/01/12 05:18:59;;;;;;;7.40;1.13;;;;;;;10.16;98.99;100109.09;5034560;28;20464;-50
2023/01/12 05:21:25;;;;;;;10.10;1.83;;;;;;;10.17;98.75;100103.72;5034447;28;20451;-49
2023/01/12 05:23:52;;;;;;;3.90;0.50;;;;;;;10.21;98.87;100088.56;5033178;28;20551;-50
2023/01/12 05:26:19;;;;;;;0.57;0.40;;;;;;;10.22;98.81;100087.69;5034244;28;20448;-50
2023/01/12 05:28:49;;;;;;;0.70;0.70;;;;;;;10.13;98.84;100075.50;5034404;28;20495;-50
2023/01/12 05:31:18;;;;;;;2.20;2.10;;;;;;;10.19;98.75;100083.31;5034369;28;20444;-50
2023/01/12 05:33:45;;;;;;;3.90;0.40;;;;;;;10.23;98.95;100074.34;5034261;28;20510;-50
2023/01/12 05:36:14;;;;;;;8.67;2.77;;;;;;;10.17;99.02;100077.16;5020657;28;20947;-49
2023/01/12 05:38:41;;;;;;;0.73;0.73;;;;;;;10.20;98.78;100069.09;5034458;28;20835;-53
2023/01/12 05:41:11;;;;;;;4.30;0.70;;;;;;;10.37;98.28;100079.22;5015410;28;20452;-54
2023/01/12 05:43:50;;;;;;;0.90;0.90;;;;;;;10.19;98.88;100071.81;5027583;28;20486;-54
2023/01/12 05:46:30;;;;;;;6.33;2.63;;;;;;;10.13;99.32;100066.66;5034232;28;20457;-54
2023/01/12 05:48:57;;;;;;;17.17;0.73;;;;;;;10.09;99.70;100068.53;5033838;28;20578;-53
2023/01/12 05:51:25;;;;;;;1.43;1.43;;;;;;;9.98;99.83;100071.53;5033931;28;20835;-54
2023/01/12 05:53:53;;;;;;;3.33;0.43;;;;;;;10.27;99.30;100065.34;5033748;28;20448;-54
2023/01/12 05:56:24;;;;;;;2.17;0.93;;;;;;;10.31;98.87;100074.13;5016372;28;20569;-53
2023/01/12 05:58:53;;;;;;;2.63;0.43;;;;;;;10.22;99.34;100082.38;5033542;28;21001;-54
2023/01/12 06:01:20;;;;;;;0.80;0.80;;;;;;;10.18;99.65;100070.94;5033742;28;20517;-54
2023/01/12 06:03:49;;;;;;;13.37;1.47;;;;;;;10.16;100.00;100069.25;5033447;28;20452;-54
2023/01/12 06:06:17;;;;;;;5.00;0.70;;;;;;;10.22;99.98;100074.41;5033768;28;20455;-54
2023/01/12 06:08:45;;;;;;;6.17;0.80;;;;;;;10.18;100.00;100075.38;5033372;28;20529;-54
2023/01/12 06:13:58;;;;;;;8.90;0.43;;;;;;;10.10;100.00;100059.66;5033450;28;20537;-53
2023/01/12 06:16:25;;;;;;;0.77;0.40;;;;;;;10.19;100.00;100048.78;5033819;28;20452;-54
2023/01/12 06:18:53;;;;;;;7.50;0.80;;;;;;;10.18;100.00;100043.50;5033814;28;20467;-54
2023/01/12 06:21:19;;;;;;;15.70;1.57;;;;;;;10.21;100.00;100054.03;5033383;28;20543;-54
2023/01/12 06:23:46;;;;;;;2.50;0.37;;;;;;;10.13;100.00;100054.25;5033367;28;20458;-54
2023/01/12 06:26:12;;;;;;;34.47;3.17;;;;;;;10.26;100.00;100037.06;5033219;28;20451;-53
2023/01/12 06:28:41;;;;;;;2.33;0.80;;;;;;;10.15;100.00;100032.97;5033041;28;20502;-53
2023/01/12 06:31:10;;;;;;;0.50;0.40;;;;;;;10.08;100.00;100040.25;5033177;28;20623;-55
2023/01/12 06:33:37;;;;;;;4.93;0.70;;;;;;;10.02;100.00;100024.53;5033296;28;20487;-54
2023/01/12 06:36:04;;;;;;;2.10;0.83;;;;;;;10.03;100.00;100020.94;5032728;28;20452;-54
2023/01/12 06:38:32;;;;;;;3.43;1.20;;;;;;;10.06;100.00;100028.81;5032795;28;20476;-52
2023/01/12 06:41:02;;;;;;;7.30;1.70;;;;;;;10.15;100.00;100033.84;5031640;28;20454;-53
2023/01/12 06:43:29;;;;;;;9.33;1.73;;;;;;;10.14;100.00;100033.88;5024968;28;20486;-54
2023/01/12 06:45:56;;;;;;;5.77;1.20;;;;;;;10.06;100.00;100039.44;5032969;28;20459;-54
2023/01/12 06:48:24;;;;;;;0.77;0.50;;;;;;;10.12;100.00;100031.28;5032786;28;20495;-55
2023/01/12 06:51:01;;;;;;;5.80;1.90;;;;;;;10.18;100.00;100031.09;5032829;28;20855;-54
2023/01/12 06:53:28;;;;;;;0.73;0.60;;;;;;;9.97;100.00;100031.75;5032831;28;20549;-53
2023/01/12 06:55:54;;;;;;;78.87;2.10;;;;;;;9.98;100.00;100022.84;5032933;28;20462;-54
2023/01/12 06:58:21;;;;;;;9.00;1.37;;;;;;;9.83;100.00;100023.31;5032688;28;20460;-54
2023/01/12 07:00:47;;;;;;;1.13;1.03;;;;;;;9.89;100.00;100026.69;5032634;28;20458;-53
2023/01/12 07:03:18;;;;;;;1.00;0.73;;;;;;;9.86;100.00;100026.75;5032690;28;20451;-54
2023/01/12 07:05:45;;;;;;;0.60;0.50;;;;;;;9.83;100.00;100025.97;5032719;28;20463;-55
2023/01/12 07:08:14;;;;;;;1.07;0.47;;;;;;;9.83;100.00;100018.88;5032211;28;21064;-54
2023/01/12 07:10:41;;;;;;;12.13;1.63;;;;;;;9.90;100.00;100015.13;5032784;28;20483;-54
2023/01/12 07:13:08;;;;;;;0.70;0.70;;;;;;;9.86;100.00;100015.25;5032400;28;20451;-54
2023/01/12 07:15:34;;;;;;;0.80;0.50;;;;;;;10.08;100.00;100005.72;5032715;28;20454;-54
2023/01/12 07:18:01;;;;;;;0.30;0.20;;;;;;;10.01;100.00;99998.88;5032493;28;21631;-54
2023/01/12 07:20:27;;;;;;;1.33;0.87;;;;;;;9.84;100.00;100011.78;5032442;28;20451;-54
2023/01/12 07:22:54;;;;;;;0.40;0.30;;;;;;;9.94;100.00;99994.66;5032235;28;20490;-55
2023/01/12 07:25:22;;;;;;;0.40;0.30;;;;;;;10.05;100.00;100003.19;5032575;28;20456;-54
2023/01/12 07:27:50;;;;;;;3.90;0.50;;;;;;;9.93;100.00;100007.06;5032154;28;20848;-54
2023/01/12 07:30:20;;;;;;;1.17;1.07;;;;;;;10.04;100.00;100002.31;5032453;28;20451;-54
2023/01/12 07:32:48;;;;;;;0.40;0.30;;;;;;;10.07;100.00;99991.59;5032131;28;20447;-54
2023/01/12 07:35:15;;;;;;;7.93;0.77;;;;;;;9.97;100.00;99989.25;5021410;28;20453;-55
2023/01/12 07:37:49;;;;;;;0.30;0.20;;;;;;;9.95;100.00;100001.72;5029898;28;20514;-55
2023/01/12 07:40:16;;;;;;;2.07;0.40;;;;;;;9.89;100.00;99996.59;5032364;28;20452;-55
2023/01/12 07:42:43;;;;;;;1.30;0.63;;;;;;;9.90;100.00;99995.69;5022394;28;20502;-54
2023/01/12 07:45:10;;;;;;;0.40;0.30;;;;;;;10.03;100.00;99989.97;5032142;28;20459;-54
2023/01/12 07:47:37;;;;;;;1.23;1.13;;;;;;;9.85;100.00;100002.91;5033009;28;20491;-55
2023/01/12 07:50:04;;;;;;;0.30;0.20;;;;;;;10.03;100.00;99989.09;5036214;28;20471;-55
2023/01/12 07:52:30;;;;;;;0.50;0.40;;;;;;;9.95;100.00;99983.13;5036191;28;20497;-52
2023/01/12 07:54:57;;;;;;;0.50;0.33;;;;;;;9.84;100.00;99993.19;5036623;28;20444;-55
2023/01/12 07:57:23;;;;;;;0.33;0.23;;;;;;;9.81;100.00;99978.25;5036038;28;20471;-54
2023/01/12 07:59:50;;;;;;;0.30;0.20;;;;;;;9.94;100.00;99974.28;5036234;28;20459;-55
2023/01/12 08:02:18;;;;;;;0.60;0.30;;;;;;;9.89;100.00;99983.34;5035908;28;20455;-54
2023/01/12 08:04:45;;;;;;;0.43;0.40;;;;;;;9.88;100.00;99968.31;5036049;28;20463;-55
2023/01/12 08:07:12;;;;;;;2.40;0.67;;;;;;;10.04;100.00;99975.75;5035902;28;20920;-54
2023/01/12 08:09:38;;;;;;;0.30;0.20;;;;;;;9.87;100.00;99969.22;5035742;28;20451;-53
2023/01/12 08:12:05;;;;;;;0.70;0.40;;;;;;;9.87;100.00;99969.22;5035893;28;20456;-55
2023/01/12 08:14:36;;;;;;;0.30;0.20;;;;;;;10.00;100.00;99973.22;5035844;28;20447;-55
2023/01/12 08:17:06;;;;;;;0.30;0.20;;;;;;;10.06;100.00;99981.88;5035819;28;20447;-54
2023/01/12 08:19:39;;;;;;;0.30;0.20;;;;;;;10.04;100.00;99990.81;5035921;28;20451;-54
2023/01/12 08:22:11;;;;;;;0.57;0.40;;;;;;;10.02;100.00;99987.34;5035762;28;20518;-55
2023/01/12 08:24:43;;;;;;;0.60;0.20;;;;;;;9.98;100.00;99985.69;5035609;28;20470;-54
2023/01/12 08:27:10;;;;;;;0.30;0.20;;;;;;;9.94;100.00;99990.22;5035614;28;20448;-54
2023/01/12 08:29:42;;;;;;;0.30;0.20;;;;;;;9.95;100.00;99984.00;5035245;28;20491;-53
2023/01/12 08:32:12;;;;;;;0.40;0.40;;;;;;;10.12;100.00;99978.16;5035777;28;20482;-54
2023/01/12 08:34:41;;;;;;;0.30;0.20;;;;;;;10.02;100.00;99971.41;5029390;28;20447;-54
2023/01/12 08:37:10;;;;;;;0.50;0.20;;;;;;;10.08;100.00;99977.38;5028546;28;20454;-55
2023/01/12 08:39:38;;;;;;;0.30;0.23;;;;;;;10.13;100.00;99984.34;5029250;28;20440;-54
2023/01/12 08:42:04;;;;;;;0.40;0.20;;;;;;;10.17;100.00;99984.22;5019001;28;20482;-55
2023/01/12 08:44:34;;;;;;;0.50;0.23;;;;;;;10.26;100.00;99986.59;5028627;28;20456;-54
2023/01/12 08:47:03;;;;;;;14.30;0.60;;;;;;;10.13;100.00;99989.63;5029468;28;20506;-54
2023/01/12 08:49:32;;;;;;;1.33;0.47;;;;;;;10.20;100.00;100000.03;5035167;28;20566;-54
2023/01/12 08:51:58;;;;;;;0.40;0.30;;;;;;;10.12;100.00;99985.25;5034956;28;20454;-54
2023/01/12 08:54:25;;;;;;;0.50;0.30;;;;;;;10.33;100.00;99995.25;5035027;28;20447;-54
2023/01/12 08:56:53;;;;;;;0.40;0.30;;;;;;;10.32;100.00;99990.84;5035087;28;20506;-55
2023/01/12 08:59:19;;;;;;;0.40;0.30;;;;;;;10.26;100.00;99988.38;5034930;28;20896;-54
2023/01/12 09:01:46;;;;;;;0.30;0.20;;;;;;;10.15;100.00;99993.16;5034881;28;20450;-54
2023/01/12 09:04:13;;;;;;;0.83;0.67;;;;;;;10.09;100.00;99994.19;5035028;28;20473;-54
2023/01/12 09:06:42;;;;;;;1.60;1.60;;;;;;;10.30;100.00;99998.88;5034888;28;20451;-54
2023/01/12 09:09:11;;;;;;;0.30;0.20;;;;;;;10.16;100.00;99994.88;5034471;28;20578;-54
2023/01/12 09:11:40;;;;;;;0.30;0.20;;;;;;;10.39;100.00;99989.72;5034547;28;20965;-54
2023/01/12 09:14:07;;;;;;;0.30;0.20;;;;;;;10.31;100.00;99989.97;5034873;28;20451;-54
2023/01/12 09:16:34;;;;;;;0.50;0.30;;;;;;;10.26;100.00;99997.22;5034505;28;20860;-54
2023/01/12 09:19:01;;;;;;;0.40;0.30;;;;;;;10.38;100.00;100002.13;5034809;28;20490;-54
2023/01/12 09:21:29;;;;;;;0.60;0.60;;;;;;;10.44;100.00;99990.44;5034462;28;20458;-53
2023/01/12 09:23:56;;;;;;;8.23;0.60;;;;;;;10.35;100.00;99973.00;5034670;28;20447;-55
2023/01/12 09:26:30;;;;;;;1.17;0.87;;;;;;;10.43;100.00;99975.44;5034555;28;20509;-55
2023/01/12 09:28:58;;;;;;;0.37;0.27;;;;;;;10.48;100.00;99983.25;5034526;28;20495;-54
2023/01/12 09:31:26;;;;;;;4.47;0.73;;;;;;;10.57;100.00;99978.50;5034479;28;20451;-54
2023/01/12 09:33:53;;;;;;;0.30;0.20;;;;;;;10.70;100.00;99978.94;5034315;28;20452;-55
2023/01/12 09:36:26;;;;;;;0.40;0.30;;;;;;;10.75;100.00;99984.97;5008047;28;20458;-55
2023/01/12 09:38:53;;;;;;;0.80;0.50;;;;;;;10.77;100.00;99982.25;5034046;28;20475;-55
2023/01/12 09:47:09;;;;;;;1.10;0.40;;;;;;;11.06;100.00;99994.53;5034144;28;20443;-55
2023/01/12 09:49:40;;;;;;;5.40;0.80;;;;;;;11.18;100.00;99994.09;5034489;28;20492;-55
2023/01/12 09:52:13;;;;;;;0.40;0.30;;;;;;;11.35;100.00;99994.34;5034109;28;20476;-55
2023/01/12 09:54:40;;;;;;;0.30;0.20;;;;;;;11.32;100.00;99983.81;5006227;28;20456;-54
2023/01/12 09:57:48;;;;;;;0.30;0.30;;;;;;;11.27;100.00;99999.97;5029113;28;20466;-55
2023/01/12 10:00:16;;;;;;;0.40;0.40;;;;;;;11.22;100.00;99990.41;5033879;28;20800;-56
2023/01/12 10:02:48;;;;;;;0.40;0.30;;;;;;;11.23;100.00;100000.97;5033945;28;20458;-55
2023/01/12 10:05:42;;;;;;;0.30;0.20;;;;;;;11.14;100.00;99979.19;5033888;28;20953;-56
2023/01/12 10:08:14;;;;;;;0.43;0.30;;;;;;;11.27;100.00;99986.66;5033549;28;20487;-55
2023/01/12 10:10:52;;;;;;;0.30;0.20;;;;;;;11.26;100.00;99984.06;5033112;28;20501;-55
2023/01/12 10:13:19;;;;;;;0.30;0.20;;;;;;;11.25;100.00;99988.53;5033526;28;20447;-55
2023/01/12 10:16:01;;;;;;;1.63;0.47;;;;;;;11.42;100.00;99987.03;5016130;28;20478;-54
2023/01/12 10:18:43;;;;;;;0.50;0.50;;;;;;;11.37;100.00;99986.31;5033493;28;20489;-56
2023/01/12 10:21:13;;;;;;;1.40;0.60;;;;;;;11.44;100.00;99991.38;5033310;28;20991;-56
2023/01/12 10:23:40;;;;;;;0.30;0.20;;;;;;;11.35;100.00;99982.84;5033501;28;20458;-56
2023/01/12 10:26:22;;;;;;;1.17;1.13;;;;;;;11.38;100.00;99996.94;5033386;28;20455;-56
2023/01/12 10:28:52;;;;;;;0.50;0.50;;;;;;;11.48;100.00;99992.97;5033335;28;20495;-56
2023/01/12 10:31:21;;;;;;;5.03;0.53;;;;;;;11.28;100.00;99998.19;5033610;28;20444;-56
2023/01/12 10:34:05;;;;;;;0.40;0.30;;;;;;;11.22;100.00;100015.22;5033319;28;20953;-55
2023/01/12 10:36:35;;;;;;;0.40;0.27;;;;;;;11.20;100.00;100003.75;5010441;28;20478;-56
2023/01/12 10:39:03;;;;;;;0.70;0.53;;;;;;;11.09;100.00;99995.28;5032907;28;20475;-56
2023/01/12 10:41:33;;;;;;;0.40;0.27;;;;;;;11.22;100.00;100003.69;5027533;28;21029;-55
2023/01/12 10:44:00;;;;;;;0.40;0.20;;;;;;;11.20;100.00;100000.22;5029781;28;20509;-56
2023/01/12 10:46:30;;;;;;;2.23;0.50;;;;;;;11.16;100.00;99991.50;5033213;28;20539;-55
2023/01/12 10:49:17;;;;;;;1.90;0.40;;;;;;;11.25;100.00;100003.63;5032826;28;20550;-54
2023/01/12 10:51:58;;;;;;;2.70;0.40;;;;;;;11.10;100.00;99997.06;5033219;28;20515;-55
2023/01/12 10:54:33;;;;;;;0.30;0.20;;;;;;;11.11;100.00;100000.56;5010871;28;20534;-55
2023/01/12 10:57:03;;;;;;;0.40;0.30;;;;;;;11.11;100.00;99996.13;5032770;28;20453;-55
2023/01/12 10:59:33;;;;;;;0.40;0.30;;;;;;;11.15;100.00;100000.41;5032873;28;20450;-56
2023/01/12 11:02:02;;;;;;;3.50;0.30;;;;;;;11.21;100.00;99993.97;5032916;28;20463;-55
2023/01/12 11:04:35;;;;;;;0.40;0.30;;;;;;;11.35;100.00;99991.69;5032664;28;20448;-56
2023/01/12 11:07:07;;;;;;;0.37;0.30;;;;;;;11.36;100.00;99987.22;5032572;28;20529;-56
2023/01/12 11:09:33;;;;;;;0.40;0.20;;;;;;;11.37;100.00;99988.97;5032444;28;21018;-56
2023/01/12 11:12:02;;;;;;;0.30;0.20;;;;;;;11.42;100.00;99976.38;5032409;28;20454;-56
2023/01/12 11:14:34;;;;;;;0.40;0.40;;;;;;;11.54;100.00;99970.59;5032388;28;20945;-54
2023/01/12 11:17:20;;;;;;;0.50;0.30;;;;;;;11.60;100.00;99972.16;5032606;28;20451;-56
2023/01/12 11:19:49;;;;;;;0.50;0.40;;;;;;;11.68;100.00;99970.94;5032567;28;20475;-56
2023/01/12 11:22:34;;;;;;;0.30;0.20;;;;;;;11.70;100.00;99963.75;5032478;28;20448;-56
2023/01/12 11:25:21;;;;;;;1.60;0.60;;;;;;;11.70;100.00;99962.91;5032482;28;20518;-56
2023/01/12 11:27:57;;;;;;;0.30;0.20;;;;;;;11.66;100.00;99970.16;5032392;28;20467;-56
2023/01/12 11:30:43;;;;;;;1.77;0.30;;;;;;;11.67;100.00;99966.56;5032308;28;20491;-56
2023/01/12 11:33:19;;;;;;;1.27;0.50;;;;;;;11.61;100.00;99964.09;5032485;28;20456;-56
2023/01/12 11:36:07;;;;;;;0.40;0.30;;;;;;;11.37;100.00;99959.69;5018900;28;20447;-56
2023/01/12 11:38:42;;;;;;;0.40;0.30;;;;;;;11.30;100.00;99956.41;5032566;28;20483;-50
2023/01/12 11:41:38;;;;;;;0.40;0.23;;;;;;;11.48;100.00;99965.50;5029304;28;20482;-51
2023/01/12 11:44:28;;;;;;;0.70;0.40;;;;;;;11.50;100.00;99964.50;5029075;28;21000;-51
2023/01/12 11:47:03;;;;;;;0.50;0.33;;;;;;;11.49;100.00;99962.78;5032194;28;20448;-51
2023/01/12 11:49:51;;;;;;;0.30;0.20;;;;;;;11.37;100.00;99970.34;5008447;28;20487;-51
2023/01/12 11:52:18;;;;;;;0.57;0.43;;;;;;;11.48;100.00;99966.34;5032079;28;20488;-50
2023/01/12 11:54:44;;;;;;;0.40;0.30;;;;;;;11.28;100.00;99966.25;5032214;28;20458;-51
2023/01/12 11:57:17;;;;;;;0.90;0.40;;;;;;;11.48;100.00;99970.81;5031936;28;20891;-51
2023/01/12 11:59:55;;;;;;;4.13;0.67;;;;;;;11.44;100.00;99959.44;5032191;28;20454;-51
2023/01/12 12:02:38;;;;;;;0.30;0.20;;;;;;;11.47;100.00;99961.09;5006479;28;20939;-51
2023/01/12 12:05:17;;;;;;;0.50;0.30;;;;;;;11.41;100.00;99954.22;5032124;28;20466;-51